createdAt,value
2019-04-03T00:01:34.410Z,100186.03
2019-04-03T00:04:02.637Z,100181.16
2019-04-03T00:06:31.306Z,100165.05
2019-04-03T00:08:58.538Z,100167.57
2019-04-03T00:11:25.788Z,100172.64
2019-04-03T00:13:53.119Z,100170.09
2019-04-03T00:16:20.436Z,100167.25
2019-04-03T00:18:48.058Z,100160.13
2019-04-03T00:21:15.409Z,100167.09
2019-04-03T00:23:42.637Z,100155.13
2019-04-03T00:26:09.984Z,100172.55
2019-04-03T00:28:37.202Z,100172.55
2019-04-03T00:31:04.487Z,100168.67
2019-04-03T00:33:31.783Z,100163.87
2019-04-03T00:35:59.033Z,100174.55
2019-04-03T00:38:26.467Z,100180.52
2019-04-03T00:40:54.355Z,100175.86
2019-04-03T00:43:24.305Z,100173.30
2019-04-03T00:45:54.057Z,100180.01
2019-04-03T00:48:20.702Z,100179.96
2019-04-03T00:50:47.970Z,100179.08
2019-04-03T00:53:15.272Z,100179.08
2019-04-03T00:55:42.638Z,100177.89
2019-04-03T00:58:37.948Z,100178.44
2019-04-03T01:01:09.683Z,100181.07
2019-04-03T01:03:36.939Z,100189.33
2019-04-03T01:06:04.630Z,100185.95
2019-04-03T01:08:31.985Z,100184.14
2019-04-03T01:11:00.407Z,100189.52
2019-04-03T01:13:28.242Z,100185.46
2019-04-03T01:15:55.563Z,100189.21
2019-04-03T01:18:22.760Z,100193.54
2019-04-03T01:20:49.998Z,100196.80
2019-04-03T01:23:17.275Z,100190.23
2019-04-03T01:25:44.489Z,100192.49
2019-04-03T01:28:12.029Z,100192.49
2019-04-03T01:30:39.360Z,100206.61
2019-04-03T01:33:06.603Z,100200.88
2019-04-03T01:35:33.889Z,100202.65
2019-04-03T01:38:01.142Z,100197.45
2019-04-03T01:40:28.505Z,100200.72
2019-04-03T01:42:55.901Z,100196.72
2019-04-03T01:45:25.245Z,100196.72
2019-04-03T01:47:52.355Z,100200.19
2019-04-03T01:50:19.631Z,100189.75
2019-04-03T01:52:46.923Z,100188.73
2019-04-03T01:55:14.297Z,100188.89
2019-04-03T01:57:41.646Z,100190.98
2019-04-03T02:00:09.664Z,100190.98
2019-04-03T02:02:38.776Z,100181.14
2019-04-03T02:05:06.996Z,100187.12
2019-04-03T02:07:34.261Z,100193.30
2019-04-03T02:10:01.527Z,100192.79
2019-04-03T02:12:28.729Z,100185.67
2019-04-03T02:14:55.939Z,100181.36
2019-04-03T02:17:24.054Z,100190.92
2019-04-03T02:19:51.602Z,100195.12
2019-04-03T02:22:19.060Z,100201.67
2019-04-03T02:24:46.337Z,100182.98
2019-04-03T02:27:13.607Z,100191.30
2019-04-03T02:29:40.918Z,100191.30
2019-04-03T02:32:08.392Z,100198.48
2019-04-03T02:34:36.619Z,100194.59
2019-04-03T02:37:04.516Z,100194.59
2019-04-03T02:39:31.834Z,100194.08
2019-04-03T02:41:59.435Z,100192.85
2019-04-03T02:44:26.897Z,100194.92
2019-04-03T02:46:54.321Z,100200.56
2019-04-03T02:49:21.598Z,100188.55
2019-04-03T02:51:51.544Z,100206.50
2019-04-03T02:54:29.803Z,100205.69
2019-04-03T02:56:57.628Z,100203.00
2019-04-03T02:59:25.948Z,100199.74
2019-04-03T03:01:54.133Z,100204.41
2019-04-03T03:04:22.398Z,100209.53
2019-04-03T03:06:50.127Z,100201.34
2019-04-03T03:09:18.498Z,100199.78
2019-04-03T03:11:46.147Z,100200.33
2019-04-03T03:14:13.973Z,100200.33
2019-04-03T03:16:41.606Z,100207.54
2019-04-03T03:19:10.635Z,100205.22
2019-04-03T03:21:38.704Z,100202.22
2019-04-03T03:24:06.458Z,100203.46
2019-04-03T03:26:37.533Z,100201.41
2019-04-03T03:29:16.241Z,100202.84
2019-04-03T03:31:59.682Z,100206.33
2019-04-03T03:34:05.274Z,100206.33
2019-04-03T03:36:32.917Z,100211.91
2019-04-03T03:39:00.984Z,100215.08
2019-04-03T03:41:29.429Z,100222.41
2019-04-03T03:43:57.437Z,100212.51
2019-04-03T03:46:27.784Z,100212.51
2019-04-03T03:48:55.383Z,100218.12
2019-04-03T03:51:22.950Z,100216.94
2019-04-03T03:53:50.892Z,100221.36
2019-04-03T03:56:19.713Z,100228.36
2019-04-03T03:58:48.807Z,100228.30
2019-04-03T04:01:16.424Z,100226.67
2019-04-03T04:03:43.980Z,100221.88
2019-04-03T04:06:11.473Z,100217.34
2019-04-03T04:08:42.662Z,100217.72
2019-04-03T04:11:08.105Z,100214.22
2019-04-03T04:13:35.876Z,100228.41
2019-04-03T04:16:04.958Z,100228.30
2019-04-03T04:18:32.726Z,100226.25
2019-04-03T04:21:01.103Z,100228.31
2019-04-03T04:23:29.306Z,100236.62
2019-04-03T04:25:56.863Z,100244.27
2019-04-03T04:28:24.211Z,100239.03
2019-04-03T04:30:52.141Z,100236.98
2019-04-03T04:33:19.402Z,100244.43
2019-04-03T04:35:46.660Z,100244.43
2019-04-03T04:38:14.080Z,100260.30
2019-04-03T04:40:41.512Z,100255.42
2019-04-03T04:43:08.935Z,100261.61
2019-04-03T04:45:36.186Z,100264.09
2019-04-03T04:48:03.775Z,100270.50
2019-04-03T04:50:31.000Z,100272.09
2019-04-03T04:52:58.723Z,100275.73
2019-04-03T04:55:26.721Z,100275.59
2019-04-03T04:57:53.946Z,100264.49
2019-04-03T05:00:21.225Z,100264.49
2019-04-03T05:02:48.865Z,100275.11
2019-04-03T05:05:17.703Z,100275.11
2019-04-03T05:07:44.970Z,100275.75
2019-04-03T05:10:12.411Z,100276.11
2019-04-03T05:12:42.548Z,100276.11
2019-04-03T05:15:09.035Z,100280.72
2019-04-03T05:17:36.295Z,100281.08
2019-04-03T05:20:04.717Z,100281.08
2019-04-03T05:22:32.031Z,100289.04
2019-04-03T05:25:00.018Z,100281.17
2019-04-03T05:27:27.474Z,100283.12
2019-04-03T05:29:54.917Z,100290.20
2019-04-03T05:32:22.252Z,100290.20
2019-04-03T05:34:49.495Z,100293.67
2019-04-03T05:37:19.872Z,100293.67
2019-04-03T05:39:47.106Z,100294.99
2019-04-03T05:42:14.583Z,100292.37
2019-04-03T05:44:41.962Z,100283.47
2019-04-03T05:47:09.403Z,100298.95
2019-04-03T05:49:36.702Z,100297.85
2019-04-03T05:52:04.687Z,100304.86
2019-04-03T05:54:32.358Z,100307.55
2019-04-03T05:56:59.581Z,100312.30
2019-04-03T05:59:26.958Z,100312.30
2019-04-03T06:01:54.225Z,100311.66
2019-04-03T06:04:25.939Z,100310.92
2019-04-03T06:06:53.180Z,100313.64
2019-04-03T06:09:23.161Z,100319.48
2019-04-03T06:11:51.918Z,100311.25
2019-04-03T06:14:22.664Z,100309.14
2019-04-03T06:16:48.824Z,100304.90
2019-04-03T06:19:16.089Z,100308.84
2019-04-03T06:21:45.615Z,100311.34
2019-04-03T06:24:12.764Z,100310.60
2019-04-03T06:26:39.976Z,100321.47
2019-04-03T06:29:08.148Z,100320.12
2019-04-03T06:31:35.464Z,100320.12
2019-04-03T06:34:02.751Z,100325.89
2019-04-03T06:36:30.025Z,100325.89
2019-04-03T06:38:57.723Z,100329.70
2019-04-03T06:41:25.418Z,100327.28
2019-04-03T06:43:54.528Z,100322.13
2019-04-03T06:46:21.862Z,100322.13
2019-04-03T06:48:49.364Z,100328.72
2019-04-03T06:51:16.928Z,100328.72
2019-04-03T06:53:44.231Z,100326.32
2019-04-03T06:56:11.524Z,100318.80
2019-04-03T06:58:40.176Z,100309.66
2019-04-03T07:01:07.679Z,100320.10
2019-04-03T07:03:35.113Z,100317.62
2019-04-03T07:06:02.453Z,100311.70
2019-04-03T07:08:34.859Z,100318.84
2019-04-03T07:10:58.889Z,100319.47
2019-04-03T07:13:29.123Z,100313.91
2019-04-03T07:15:56.852Z,100314.84
2019-04-03T07:18:24.483Z,100313.45
2019-04-03T07:20:54.015Z,100307.56
2019-04-03T07:23:21.643Z,100318.20
2019-04-03T07:25:49.051Z,100318.20
2019-04-03T07:28:16.539Z,100312.28
2019-04-03T07:30:43.821Z,100313.58
2019-04-03T07:33:11.179Z,100316.05
2019-04-03T07:35:40.448Z,100316.05
2019-04-03T07:38:07.664Z,100318.28
2019-04-03T07:40:34.942Z,100321.34
2019-04-03T07:43:02.258Z,100324.09
2019-04-03T07:45:29.549Z,100328.75
2019-04-03T07:47:56.847Z,100331.38
2019-04-03T07:50:24.431Z,100327.73
2019-04-03T07:52:51.867Z,100320.61
2019-04-03T07:55:19.239Z,100325.28
2019-04-03T07:57:46.618Z,100324.72
2019-04-03T08:00:14.576Z,100324.83
2019-04-03T08:02:47.203Z,100333.45
2019-04-03T08:05:11.422Z,100333.61
2019-04-03T08:07:38.739Z,100335.08
2019-04-03T08:10:06.185Z,100336.13
2019-04-03T08:12:35.434Z,100347.55
2019-04-03T08:15:04.098Z,100341.58
2019-04-03T08:17:31.375Z,100348.06
2019-04-03T08:19:58.756Z,100352.24
2019-04-03T08:22:26.013Z,100344.45
2019-04-03T08:24:53.826Z,100353.66
2019-04-03T08:27:23.742Z,100356.84
2019-04-03T08:29:50.930Z,100355.73
2019-04-03T08:32:18.431Z,100358.91
2019-04-03T08:34:45.697Z,100357.55
2019-04-03T08:37:13.244Z,100359.20
2019-04-03T08:39:40.523Z,100352.23
2019-04-03T08:42:07.856Z,100355.80
2019-04-03T08:44:36.074Z,100353.73
2019-04-03T08:47:03.547Z,100349.54
2019-04-03T08:49:30.928Z,100351.74
2019-04-03T08:51:58.268Z,100357.50
2019-04-03T08:54:25.596Z,100359.60
2019-04-03T08:56:52.837Z,100363.86
2019-04-03T08:59:20.341Z,100367.77
2019-04-03T09:01:47.742Z,100363.86
2019-04-03T09:04:16.791Z,100359.99
2019-04-03T09:06:46.632Z,100359.17
2019-04-03T09:09:13.915Z,100353.55
2019-04-03T09:11:41.284Z,100353.55
2019-04-03T09:14:08.600Z,100353.27
2019-04-03T09:16:35.853Z,100362.10
2019-04-03T09:19:03.192Z,100373.05
2019-04-03T09:21:30.476Z,100379.95
2019-04-03T09:23:58.343Z,100377.28
2019-04-03T09:26:25.861Z,100381.90
2019-04-03T09:28:53.133Z,100377.60
2019-04-03T09:31:20.816Z,100369.47
2019-04-03T09:33:48.353Z,100368.27
2019-04-03T09:36:15.784Z,100370.95
2019-04-03T09:38:43.210Z,100372.80
2019-04-03T09:41:10.534Z,100368.17
2019-04-03T09:43:39.647Z,100360.30
2019-04-03T09:46:06.966Z,100351.86
2019-04-03T09:48:34.879Z,100355.25
2019-04-03T09:51:03.603Z,100355.91
2019-04-03T09:53:30.830Z,100356.84
2019-04-03T09:56:00.232Z,100364.20
2019-04-03T09:58:27.502Z,100369.34
2019-04-03T10:00:54.806Z,100356.64
2019-04-03T10:03:23.828Z,100353.72
2019-04-03T10:05:51.246Z,100359.95
2019-04-03T10:08:18.596Z,100355.21
2019-04-03T10:10:47.094Z,100346.38
2019-04-03T10:13:14.990Z,100337.16
2019-04-03T10:15:42.570Z,100338.11
2019-04-03T10:18:10.151Z,100327.77
2019-04-03T10:20:37.731Z,100325.34
2019-04-03T10:23:04.910Z,100312.66
2019-04-03T10:25:32.286Z,100324.02
2019-04-03T10:27:59.488Z,100323.81
2019-04-03T10:30:27.483Z,100330.28
2019-04-03T10:32:54.797Z,100335.39
2019-04-03T10:35:22.059Z,100341.24
2019-04-03T10:37:49.325Z,100346.68
2019-04-03T10:40:16.969Z,100341.98
2019-04-03T10:42:44.285Z,100339.72
2019-04-03T10:45:11.693Z,100343.06
2019-04-03T10:47:42.809Z,100346.18
2019-04-03T10:50:08.794Z,100340.80
2019-04-03T10:52:36.132Z,100341.30
2019-04-03T10:55:04.002Z,100338.25
2019-04-03T10:57:31.754Z,100331.20
2019-04-03T11:00:00.434Z,100333.38
2019-04-03T11:02:27.687Z,100331.95
2019-04-03T11:04:54.927Z,100330.11
2019-04-03T11:07:22.390Z,100325.38
2019-04-03T11:09:49.658Z,100323.80
2019-04-03T11:12:17.041Z,100319.53
2019-04-03T11:14:44.922Z,100326.29
2019-04-03T11:17:12.135Z,100328.25
2019-04-03T11:19:39.747Z,100322.11
2019-04-03T11:22:07.300Z,100314.34
2019-04-03T11:24:37.725Z,100307.05
2019-04-03T11:27:03.846Z,100310.69
2019-04-03T11:29:31.103Z,100306.88
2019-04-03T11:31:58.709Z,100310.76
2019-04-03T11:34:25.966Z,100299.21
2019-04-03T11:36:53.190Z,100294.37
2019-04-03T11:39:20.563Z,100291.20
2019-04-03T11:41:48.344Z,100284.73
2019-04-03T11:44:15.562Z,100282.29
2019-04-03T11:46:42.815Z,100285.02
2019-04-03T11:49:10.283Z,100291.64
2019-04-03T11:51:37.522Z,100280.66
2019-04-03T11:54:06.759Z,100284.12
2019-04-03T11:56:33.949Z,100290.23
2019-04-03T11:59:01.178Z,100289.75
2019-04-03T12:01:28.806Z,100282.34
2019-04-03T12:03:56.216Z,100282.03
2019-04-03T12:06:23.527Z,100282.11
2019-04-03T12:08:51.679Z,100281.23
2019-04-03T12:11:18.940Z,100291.19
2019-04-03T12:13:47.244Z,100292.47
2019-04-03T12:16:14.503Z,100293.30
2019-04-03T12:18:41.796Z,100290.38
2019-04-03T12:21:11.690Z,100291.15
2019-04-03T12:23:39.398Z,100285.75
2019-04-03T12:26:07.060Z,100283.11
2019-04-03T12:28:34.365Z,100283.91
2019-04-03T12:31:01.607Z,100289.06
2019-04-03T12:33:29.112Z,100289.66
2019-04-03T12:35:56.472Z,100294.06
2019-04-03T12:38:23.889Z,100276.16
2019-04-03T12:40:51.261Z,100269.68
2019-04-03T12:43:18.701Z,100269.32
2019-04-03T12:45:46.044Z,100269.36
2019-04-03T12:48:13.266Z,100267.23
2019-04-03T12:50:41.561Z,100257.59
2019-04-03T12:53:08.789Z,100263.39
2019-04-03T12:55:42.035Z,100244.02
2019-04-03T12:58:08.247Z,100239.41
2019-04-03T13:00:35.937Z,100238.34
2019-04-03T13:03:03.456Z,100215.85
2019-04-03T13:05:30.757Z,100212.25
2019-04-03T13:07:59.823Z,100217.43
2019-04-03T13:10:39.219Z,100231.91
2019-04-03T13:12:57.170Z,100231.27
2019-04-03T13:15:24.805Z,100219.44
2019-04-03T13:17:52.229Z,100215.56
2019-04-03T13:20:19.426Z,100219.52
2019-04-03T13:22:46.680Z,100226.44
2019-04-03T13:25:14.247Z,100235.52
2019-04-03T13:27:41.823Z,100235.42
2019-04-03T13:30:13.835Z,100239.05
2019-04-03T13:32:41.870Z,100230.66
2019-04-03T13:35:09.574Z,100225.08
2019-04-03T13:37:36.807Z,100220.91
2019-04-03T13:40:06.458Z,100217.64
2019-04-03T13:42:33.915Z,100213.81
2019-04-03T13:45:01.618Z,100214.87
2019-04-03T13:47:28.882Z,100221.06
2019-04-03T13:49:56.256Z,100228.88
2019-04-03T13:52:23.496Z,100225.22
2019-04-03T13:54:51.124Z,100217.38
2019-04-03T13:57:18.490Z,100215.66
2019-04-03T13:59:46.076Z,100206.20
2019-04-03T14:02:14.575Z,100193.38
2019-04-03T14:04:42.383Z,100191.33
2019-04-03T14:07:09.792Z,100208.84
2019-04-03T14:09:37.149Z,100208.77
2019-04-03T14:12:05.329Z,100201.70
2019-04-03T14:14:33.845Z,100190.89
2019-04-03T14:17:01.554Z,100176.67
2019-04-03T14:19:41.852Z,100159.86
2019-04-03T14:21:59.947Z,100148.05
2019-04-03T14:24:39.264Z,100139.05
2019-04-03T14:26:56.863Z,100156.66
2019-04-03T14:29:24.164Z,100173.52
2019-04-03T14:31:51.384Z,100184.45
2019-04-03T14:34:18.731Z,100203.77
2019-04-03T14:36:46.085Z,100210.27
2019-04-03T14:39:13.848Z,100211.17
2019-04-03T14:41:41.197Z,100204.22
2019-04-03T14:44:09.758Z,100197.70
2019-04-03T14:46:37.326Z,100185.68
2019-04-03T14:49:04.787Z,100181.07
2019-04-03T14:51:32.055Z,100164.80
2019-04-03T14:53:59.287Z,100149.30
2019-04-03T14:56:26.568Z,100143.19
2019-04-03T14:58:53.811Z,100141.06
2019-04-03T15:01:21.349Z,100140.33
2019-04-03T15:03:48.969Z,100146.62
2019-04-03T15:06:16.698Z,100154.73
2019-04-03T15:08:43.963Z,100177.41
2019-04-03T15:11:11.249Z,100181.50
2019-04-03T15:13:40.469Z,100189.96
2019-04-03T15:16:07.729Z,100198.75
2019-04-03T15:18:35.259Z,100198.92
2019-04-03T15:21:02.472Z,100204.68
2019-04-03T15:23:39.968Z,100203.89
2019-04-03T15:26:04.450Z,100202.85
2019-04-03T15:28:32.378Z,100198.11
2019-04-03T15:30:59.781Z,100207.59
2019-04-03T15:33:27.427Z,100209.03
2019-04-03T15:35:54.800Z,100217.75
2019-04-03T15:38:22.110Z,100214.89
2019-04-03T15:40:49.361Z,100197.47
2019-04-03T15:43:17.347Z,100189.63
2019-04-03T15:45:45.552Z,100191.75
2019-04-03T15:48:12.816Z,100185.19
2019-04-03T15:50:40.113Z,100166.71
2019-04-03T15:53:07.390Z,100160.17
2019-04-03T15:55:37.032Z,100160.11
2019-04-03T15:58:03.809Z,100162.34
2019-04-03T16:00:34.339Z,100156.21
2019-04-03T16:03:00.628Z,100162.62
2019-04-03T16:05:30.603Z,100154.33
2019-04-03T16:07:57.476Z,100157.41
2019-04-03T16:10:24.877Z,100151.22
2019-04-03T16:12:52.186Z,100148.95
2019-04-03T16:15:20.176Z,100152.33
2019-04-03T16:17:48.630Z,100147.94
2019-04-03T16:20:17.614Z,100133.96
2019-04-03T16:22:45.232Z,100136.50
2019-04-03T16:25:15.570Z,100141.87
2019-04-03T16:27:42.070Z,100148.41
2019-04-03T16:30:09.840Z,100155.11
2019-04-03T16:32:37.616Z,100153.31
2019-04-03T16:35:06.052Z,100152.06
2019-04-03T16:37:33.624Z,100152.06
2019-04-03T16:40:04.147Z,100142.89
2019-04-03T16:42:30.183Z,100128.78
2019-04-03T16:44:58.216Z,100116.44
2019-04-03T16:47:27.620Z,100119.08
2019-04-03T16:49:55.928Z,100127.80
2019-04-03T16:52:23.290Z,100117.75
2019-04-03T16:54:50.904Z,100109.86
2019-04-03T16:57:21.469Z,100114.67
2019-04-03T16:59:47.325Z,100131.80
2019-04-03T17:02:14.556Z,100138.39
2019-04-03T17:04:42.273Z,100145.40
2019-04-03T17:07:09.804Z,100162.14
2019-04-03T17:09:38.765Z,100171.82
2019-04-03T17:12:06.661Z,100171.86
2019-04-03T17:14:34.208Z,100187.25
2019-04-03T17:17:01.848Z,100190.77
2019-04-03T17:19:29.587Z,100174.05
2019-04-03T17:21:57.181Z,100169.66
2019-04-03T17:24:24.669Z,100171.86
2019-04-03T17:26:57.341Z,100160.42
2019-04-03T17:29:21.112Z,100155.14
2019-04-03T17:31:48.451Z,100147.59
2019-04-03T17:34:15.873Z,100142.32
2019-04-03T17:36:43.260Z,100149.36
2019-04-03T17:39:10.489Z,100152.87
2019-04-03T17:41:38.018Z,100152.37
2019-04-03T17:44:05.888Z,100146.70
2019-04-03T17:46:33.179Z,100154.63
2019-04-03T17:49:00.476Z,100152.45
2019-04-03T17:51:27.695Z,100168.73
2019-04-03T17:53:54.915Z,100168.28
2019-04-03T17:56:22.191Z,100172.64
2019-04-03T17:58:49.479Z,100180.99
2019-04-03T18:01:16.756Z,100176.09
2019-04-03T18:03:44.029Z,100174.29
2019-04-03T18:06:11.269Z,100166.78
2019-04-03T18:08:38.535Z,100165.38
2019-04-03T18:11:05.828Z,100151.68
2019-04-03T18:13:33.079Z,100146.37
2019-04-03T18:16:00.343Z,100149.00
2019-04-03T18:18:27.712Z,100153.32
2019-04-03T18:20:54.971Z,100161.23
2019-04-03T18:23:22.291Z,100162.55
2019-04-03T18:25:49.656Z,100176.13
2019-04-03T18:28:16.947Z,100176.09
2019-04-03T18:30:44.390Z,100169.86
2019-04-03T18:33:11.629Z,100174.95
2019-04-03T18:35:38.860Z,100174.80
2019-04-03T18:38:07.997Z,100160.25
2019-04-03T18:40:35.238Z,100163.77
2019-04-03T18:43:02.475Z,100163.77
2019-04-03T18:45:29.802Z,100158.84
2019-04-03T18:47:57.247Z,100167.20
2019-04-03T18:50:24.598Z,100164.47
2019-04-03T18:52:51.959Z,100155.25
2019-04-03T18:55:19.304Z,100160.40
2019-04-03T18:57:49.537Z,100171.38
2019-04-03T19:00:15.972Z,100170.53
2019-04-03T19:02:43.299Z,100170.49
2019-04-03T19:05:13.790Z,100170.89
2019-04-03T19:07:39.994Z,100172.16
2019-04-03T19:10:08.042Z,100158.02
2019-04-03T19:12:36.211Z,100150.67
2019-04-03T19:15:04.159Z,100127.43
2019-04-03T19:17:31.404Z,100127.43
2019-04-03T19:20:09.651Z,100131.17
2019-04-03T19:22:27.816Z,100141.27
2019-04-03T19:24:58.470Z,100150.09
2019-04-03T19:27:25.316Z,100144.05
2019-04-03T19:29:52.582Z,100143.02
2019-04-03T19:32:19.842Z,100143.83
2019-04-03T19:34:47.256Z,100161.47
2019-04-03T19:37:14.492Z,100158.06
2019-04-03T19:39:41.737Z,100178.88
2019-04-03T19:42:09.005Z,100171.53
2019-04-03T19:44:36.313Z,100171.96
2019-04-03T19:47:03.763Z,100164.89
2019-04-03T19:49:31.097Z,100177.73
2019-04-03T19:51:58.311Z,100149.84
2019-04-03T19:54:25.597Z,100143.15
2019-04-03T19:56:52.851Z,100151.72
2019-04-03T19:59:20.098Z,100145.95
2019-04-03T20:01:47.374Z,100139.00
2019-04-03T20:04:15.961Z,100142.01
2019-04-03T20:06:43.683Z,100133.15
2019-04-03T20:09:10.990Z,100146.63
2019-04-03T20:11:38.226Z,100159.66
2019-04-03T20:14:05.469Z,100159.66
2019-04-03T20:16:32.750Z,100159.28
2019-04-03T20:18:59.987Z,100159.28
2019-04-03T20:21:27.265Z,100172.59
2019-04-03T20:23:54.542Z,100171.77
2019-04-03T20:26:21.818Z,100171.77
2019-04-03T20:28:49.099Z,100171.28
2019-04-03T20:31:16.385Z,100161.63
2019-04-03T20:33:43.631Z,100144.32
2019-04-03T20:36:10.874Z,100147.48
2019-04-03T20:38:38.138Z,100150.55
2019-04-03T20:41:05.356Z,100157.47
2019-04-03T20:43:32.667Z,100166.77
2019-04-03T20:46:00.050Z,100179.11
2019-04-03T20:48:28.291Z,100183.50
2019-04-03T20:50:56.015Z,100192.66
2019-04-03T20:53:23.240Z,100195.72
2019-04-03T20:55:50.474Z,100197.38
2019-04-03T20:58:17.723Z,100199.45
2019-04-03T21:00:51.455Z,100193.76
2019-04-03T21:03:16.460Z,100194.45
2019-04-03T21:05:43.713Z,100197.20
2019-04-03T21:08:10.955Z,100190.73
2019-04-03T21:10:38.165Z,100175.48
2019-04-03T21:13:06.896Z,100170.15
2019-04-03T21:15:34.567Z,100171.11
2019-04-03T21:18:01.819Z,100168.73
2019-04-03T21:20:29.074Z,100163.07
2019-04-03T21:22:56.335Z,100157.76
2019-04-03T21:25:23.590Z,100157.76
2019-04-03T21:27:50.844Z,100167.19
2019-04-03T21:30:18.198Z,100179.73
2019-04-03T21:32:45.429Z,100174.94
2019-04-03T21:35:12.706Z,100176.30
2019-04-03T21:37:40.647Z,100176.30
2019-04-03T21:40:08.300Z,100160.42
2019-04-03T21:42:35.621Z,100166.29
2019-04-03T21:45:07.115Z,100170.31
2019-04-03T21:47:32.149Z,100180.63
2019-04-03T21:49:59.412Z,100180.63
2019-04-03T21:52:26.630Z,100166.31
2019-04-03T21:54:53.880Z,100156.62
2019-04-03T21:57:21.178Z,100157.02
2019-04-03T21:59:48.383Z,100153.42
2019-04-03T22:02:16.185Z,100168.75
2019-04-03T22:04:43.939Z,100182.05
2019-04-03T22:07:11.184Z,100179.71
2019-04-03T22:09:38.411Z,100178.44
2019-04-03T22:12:06.554Z,100178.44
2019-04-03T22:14:33.844Z,100187.38
2019-04-03T22:17:01.092Z,100177.56
2019-04-03T22:19:28.345Z,100177.56
2019-04-03T22:21:55.554Z,100163.30
2019-04-03T22:24:22.902Z,100151.14
2019-04-03T22:26:50.174Z,100149.31
2019-04-03T22:29:19.794Z,100136.20
2019-04-03T22:31:46.612Z,100143.72
2019-04-03T22:34:13.869Z,100147.38
2019-04-03T22:36:41.146Z,100143.08
2019-04-03T22:39:08.793Z,100133.37
2019-04-03T22:41:36.144Z,100130.66
2019-04-03T22:44:03.576Z,100127.61
2019-04-03T22:46:30.883Z,100120.84
2019-04-03T22:49:00.030Z,100130.22
2019-04-03T22:51:27.273Z,100131.97
2019-04-03T22:53:54.515Z,100124.85
2019-04-03T22:56:21.791Z,100122.59
2019-04-03T22:58:49.100Z,100124.04
2019-04-03T23:01:16.343Z,100115.64
2019-04-03T23:03:43.608Z,100116.69
2019-04-03T23:06:10.840Z,100128.09
2019-04-03T23:08:38.064Z,100126.45
2019-04-03T23:11:05.335Z,100128.51
2019-04-03T23:13:33.830Z,100123.89
2019-04-03T23:16:01.734Z,100106.62
2019-04-03T23:18:29.031Z,100108.59
2019-04-03T23:20:56.332Z,100107.12
2019-04-03T23:23:27.075Z,100105.95
2019-04-03T23:25:52.730Z,100108.87
2019-04-03T23:28:19.944Z,100100.56
2019-04-03T23:30:47.171Z,100089.25
2019-04-03T23:33:16.691Z,100089.11
2019-04-03T23:35:43.588Z,100095.81
2019-04-03T23:38:10.806Z,100082.83
2019-04-03T23:40:38.076Z,100070.84
2019-04-03T23:43:08.545Z,100073.34
2019-04-03T23:45:34.582Z,100064.11
2019-04-03T23:48:01.895Z,100065.28
2019-04-03T23:50:29.143Z,100078.13
2019-04-03T23:52:56.426Z,100091.94
2019-04-03T23:55:23.678Z,100091.94
2019-04-03T23:57:50.902Z,100101.11
